createdAt,value
2023-05-14T13:48:01.420Z,0
2023-05-14T13:49:02.124Z,0.04
2023-05-14T13:50:03.364Z,0
2023-05-14T13:51:04.052Z,1.2
2023-05-14T13:52:01.933Z,0.88
2023-05-14T13:53:01.517Z,0
2023-05-14T13:54:02.169Z,0
2023-05-14T13:55:01.849Z,0.64
2023-05-14T13:56:01.532Z,0.2
2023-05-14T13:57:03.842Z,0
2023-05-14T13:58:01.884Z,0
2023-05-14T13:59:01.448Z,0
2023-05-14T14:00:01.999Z,0
2023-05-14T14:01:01.539Z,0
2023-05-14T14:02:03.968Z,0.76
2023-05-14T14:03:01.823Z,0.12
2023-05-14T14:04:03.219Z,0
2023-05-14T14:05:04.019Z,0
2023-05-14T14:06:01.935Z,0
2023-05-14T14:07:03.222Z,0
2023-05-14T14:13:02.043Z,0
2023-05-14T14:14:03.859Z,0
2023-05-14T14:15:03.295Z,0
2023-05-14T14:16:02.203Z,0
2023-05-14T14:17:01.682Z,0
2023-05-14T14:18:02.303Z,0
2023-05-14T14:19:01.817Z,0.08
2023-05-14T14:20:02.255Z,1.08
2023-05-14T14:21:01.770Z,0.04
2023-05-14T14:22:02.260Z,1.84
2023-05-14T14:23:01.811Z,1.52
2023-05-14T14:24:02.273Z,2.04
2023-05-14T14:25:01.762Z,2.48
2023-05-14T14:26:02.338Z,2.16
2023-05-14T14:27:01.843Z,1.76
2023-05-14T14:28:01.381Z,0.76
2023-05-14T14:29:01.869Z,0.24
2023-05-14T14:30:02.986Z,0.64
2023-05-14T14:31:01.877Z,1.44
2023-05-14T14:32:01.509Z,1.24
2023-05-14T14:33:01.942Z,0.88
2023-05-14T14:34:02.328Z,1.88
2023-05-14T14:35:03.563Z,0.64
2023-05-14T14:36:02.331Z,0
2023-05-14T14:37:01.780Z,0
2023-05-14T14:38:02.319Z,0
2023-05-14T14:39:03.447Z,0
2023-05-14T14:40:03.925Z,1.24
2023-05-14T14:41:03.361Z,0.84
2023-05-14T14:42:02.115Z,0.6
2023-05-14T14:43:01.613Z,0.12
2023-05-14T14:44:02.091Z,0
2023-05-14T14:45:01.554Z,0
2023-05-14T14:46:03.777Z,0
2023-05-14T14:47:01.560Z,0
2023-05-14T14:48:02.017Z,0
2023-05-14T14:49:01.509Z,0
2023-05-14T14:50:02.028Z,0
2023-05-14T14:51:01.544Z,0
2023-05-14T14:52:03.678Z,0
2023-05-14T14:53:01.512Z,0
2023-05-14T14:54:02.011Z,0
2023-05-14T14:55:03.216Z,0
2023-05-14T14:56:02.007Z,0
2023-05-14T14:57:01.527Z,0
2023-05-14T14:58:02.032Z,0
2023-05-14T14:59:01.521Z,0
2023-05-14T15:00:03.712Z,0
2023-05-14T15:01:01.574Z,0
2023-05-14T15:02:01.942Z,0
2023-05-14T15:03:01.526Z,0
2023-05-14T15:04:01.931Z,0
2023-05-14T15:05:01.895Z,0
2023-05-14T15:06:02.315Z,0
2023-05-14T15:07:01.771Z,0
2023-05-14T15:08:02.250Z,0
2023-05-14T15:09:01.687Z,0
2023-05-14T15:10:02.186Z,0.4
2023-05-14T15:11:01.604Z,1
2023-05-14T15:12:02.100Z,1.04
2023-05-14T15:13:03.372Z,1.04
2023-05-14T15:14:03.674Z,0.4
2023-05-14T15:15:01.554Z,0.44
2023-05-14T15:16:03.593Z,0.84
2023-05-14T15:17:01.523Z,0.72
2023-05-14T15:18:01.871Z,0.12
2023-05-14T15:19:02.322Z,1.04
2023-05-14T15:20:01.683Z,1.24
2023-05-14T15:21:02.101Z,0.64
2023-05-14T15:22:01.597Z,0.16
2023-05-14T15:23:02.094Z,0
2023-05-14T15:24:01.801Z,1.24
2023-05-14T15:25:01.997Z,1.32
2023-05-14T15:26:01.457Z,1.28
2023-05-14T15:27:01.921Z,0.88
2023-05-14T15:28:01.517Z,1.32
2023-05-14T15:29:01.855Z,1.12
2023-05-14T15:30:01.362Z,0.08
2023-05-14T15:31:01.854Z,0
2023-05-14T15:32:02.474Z,0.4
2023-05-14T15:33:01.841Z,0
2023-05-14T15:34:02.254Z,0.12
2023-05-14T15:35:01.680Z,0.72
2023-05-14T15:36:02.158Z,1.16
2023-05-14T15:37:03.357Z,0.36
2023-05-14T15:38:02.161Z,0.76
2023-05-14T15:39:03.273Z,0.84
2023-05-14T15:40:02.082Z,0.12
2023-05-14T15:41:01.520Z,0
2023-05-14T15:42:02.009Z,0
2023-05-14T15:43:01.465Z,0
2023-05-14T15:44:01.937Z,0
2023-05-14T15:45:01.455Z,0
2023-05-14T15:46:03.636Z,0
2023-05-14T15:47:01.361Z,0
2023-05-14T15:48:03.584Z,0
2023-05-14T15:49:02.352Z,0
2023-05-14T15:50:01.766Z,0
2023-05-14T15:51:02.245Z,0
2023-05-14T15:52:01.693Z,0
2023-05-14T15:53:02.194Z,0
2023-05-14T15:54:01.694Z,0
2023-05-14T15:55:02.079Z,0
2023-05-14T15:56:01.620Z,0
2023-05-14T15:57:02.101Z,0
2023-05-14T15:58:01.616Z,0
2023-05-14T15:59:02.086Z,0
2023-05-14T16:00:01.616Z,0
2023-05-14T16:01:02.080Z,0
2023-05-14T16:02:03.348Z,0
2023-05-14T16:03:02.161Z,0
2023-05-14T16:04:01.644Z,0
2023-05-14T16:05:02.089Z,0.12
2023-05-14T16:06:01.619Z,0.08
2023-05-14T16:07:03.311Z,0.12
2023-05-14T16:08:02.039Z,0.52
2023-05-14T16:09:01.545Z,0
2023-05-14T16:10:02.013Z,0
2023-05-14T16:11:01.451Z,0
2023-05-14T16:12:03.598Z,0
2023-05-14T16:13:03.056Z,0.32
2023-05-14T16:14:01.837Z,1
2023-05-14T16:15:01.377Z,0.24
2023-05-14T16:16:01.834Z,0.8
2023-05-14T16:17:02.236Z,0
2023-05-14T16:18:01.815Z,0
2023-05-14T16:19:02.349Z,0.24
2023-05-14T16:20:01.684Z,0.08
2023-05-14T16:21:03.849Z,0
2023-05-14T16:22:01.630Z,0
2023-05-14T16:23:02.124Z,0
2023-05-14T16:24:01.559Z,0
2023-05-14T16:25:03.517Z,0
2023-05-14T16:26:01.603Z,0
2023-05-14T16:27:03.693Z,0
2023-05-14T16:28:01.552Z,0.72
2023-05-14T16:29:02.040Z,1.28
2023-05-14T16:30:01.465Z,1.08
2023-05-14T16:31:03.719Z,1.56
2023-05-14T16:32:03.078Z,1.2
2023-05-14T16:33:03.546Z,0.4
2023-05-14T16:34:02.330Z,0
2023-05-14T16:35:03.497Z,0.96
2023-05-14T16:36:03.921Z,1.36
2023-05-14T16:37:03.359Z,1.96
2023-05-14T16:40:02.126Z,0.76
2023-05-14T16:41:01.620Z,1.52
2023-05-14T16:42:03.746Z,1.88
2023-05-14T16:43:01.862Z,1.56
2023-05-14T16:44:02.001Z,1.2
2023-05-14T16:45:01.442Z,0.96
2023-05-14T16:46:03.621Z,1.52
2023-05-14T16:47:01.368Z,2.4
2023-05-14T16:48:01.937Z,1.44
2023-05-14T16:50:01.842Z,1.68
2023-05-14T16:51:03.919Z,1.56
2023-05-14T16:52:01.760Z,1.2
2023-05-14T16:53:03.865Z,1.04
2023-05-14T16:54:01.667Z,1.24
2023-05-14T16:55:03.829Z,1.08
2023-05-14T16:56:01.598Z,0.84
2023-05-14T16:57:02.076Z,1.24
2023-05-14T16:58:03.202Z,1.72
2023-05-14T16:59:03.664Z,2.48
2023-05-14T17:00:03.102Z,2.16
2023-05-14T17:01:01.933Z,1.48
2023-05-14T17:02:01.497Z,1.88
2023-05-14T17:03:03.678Z,1.4
2023-05-14T17:04:01.368Z,1.48
2023-05-14T17:05:03.517Z,1.36
2023-05-14T17:06:02.305Z,0.96
2023-05-14T17:07:03.434Z,0.88
2023-05-14T17:08:03.915Z,0.32
2023-05-14T17:09:01.666Z,0.08
2023-05-14T17:10:02.313Z,0.64
2023-05-14T17:11:01.672Z,1.44
2023-05-14T17:12:02.142Z,0.52
2023-05-14T17:13:02.086Z,0
2023-05-14T17:14:01.606Z,0
2023-05-14T17:15:05.332Z,0
2023-05-14T17:16:01.545Z,0.72
2023-05-14T17:17:01.995Z,0.52
2023-05-14T17:18:01.561Z,0.72
2023-05-14T17:19:03.648Z,0.4
2023-05-14T17:20:03.032Z,0
2023-05-14T17:21:01.831Z,0
2023-05-14T17:22:04.021Z,0
2023-05-14T17:23:01.755Z,0.16
2023-05-14T17:24:02.391Z,0.4
2023-05-14T17:25:03.364Z,0
2023-05-14T17:26:03.862Z,0
2023-05-14T17:27:01.608Z,0
2023-05-14T17:28:02.088Z,0
2023-05-14T17:29:01.518Z,0
2023-05-14T17:30:02.032Z,0
2023-05-14T17:31:01.498Z,0
2023-05-14T17:32:01.939Z,0
2023-05-14T17:33:01.439Z,0
2023-05-14T17:34:01.839Z,0
2023-05-14T17:36:03.447Z,0
2023-05-14T17:37:03.883Z,0
2023-05-14T17:38:01.754Z,0
2023-05-14T17:39:03.825Z,0
2023-05-14T17:40:01.701Z,0
2023-05-14T17:41:03.859Z,0
2023-05-14T17:42:01.604Z,0
2023-05-14T17:43:02.083Z,0
2023-05-14T17:44:01.523Z,0
2023-05-14T17:45:02.017Z,0
2023-05-14T17:46:01.535Z,0
2023-05-14T17:47:02.079Z,0
2023-05-14T17:48:01.471Z,0
2023-05-14T17:49:01.899Z,0
2023-05-14T17:50:01.360Z,0
2023-05-14T17:51:01.864Z,0
2023-05-14T17:53:01.753Z,0
2023-05-14T17:54:02.245Z,0
2023-05-14T17:55:01.741Z,0
2023-05-14T17:56:02.172Z,0
2023-05-14T17:57:01.670Z,0
2023-05-14T17:58:03.824Z,0
2023-05-14T17:59:01.624Z,0
2023-05-14T18:00:02.067Z,0
2023-05-14T18:01:01.631Z,0
2023-05-14T18:02:02.007Z,0
2023-05-14T18:03:01.526Z,0
2023-05-14T18:04:02.015Z,0
2023-05-14T18:05:01.494Z,0
2023-05-14T18:06:01.920Z,0
2023-05-14T18:07:03.099Z,0
2023-05-14T18:08:01.850Z,0
2023-05-14T18:09:03.997Z,0
2023-05-14T18:10:02.316Z,0
2023-05-14T18:11:03.943Z,0
2023-05-14T18:12:06.708Z,0
2023-05-14T18:13:02.169Z,0
2023-05-14T18:14:01.699Z,0
2023-05-14T18:15:03.767Z,0
2023-05-14T18:16:01.604Z,0
2023-05-14T18:17:01.585Z,0
2023-05-14T18:18:02.021Z,0
2023-05-14T18:19:01.519Z,0
2023-05-14T18:20:01.976Z,1.32
2023-05-14T18:21:01.371Z,1.12
2023-05-14T18:22:03.526Z,0.24
2023-05-14T18:23:02.383Z,0.04
2023-05-14T18:24:01.762Z,0
2023-05-14T18:25:02.258Z,0
2023-05-14T18:26:01.711Z,0
2023-05-14T18:27:02.204Z,0
2023-05-14T18:28:06.731Z,0
2023-05-14T18:29:02.187Z,0
2023-05-14T18:30:03.288Z,0
2023-05-14T18:31:02.152Z,0
2023-05-14T18:32:03.215Z,0
2023-05-14T18:33:02.117Z,0
2023-05-14T18:34:01.454Z,0
2023-05-14T18:35:01.944Z,0
2023-05-14T18:36:01.376Z,0
2023-05-14T18:37:01.880Z,0
2023-05-14T18:38:03.055Z,0
2023-05-14T18:39:01.858Z,0
2023-05-14T18:40:02.336Z,0
2023-05-14T18:41:01.876Z,0
2023-05-14T18:42:02.274Z,0
2023-05-14T18:43:01.692Z,0
2023-05-14T18:44:03.835Z,0
2023-05-14T18:45:01.710Z,0
2023-05-14T18:46:04.084Z,0
2023-05-14T18:47:06.618Z,0
2023-05-14T18:48:02.069Z,0
2023-05-14T18:49:03.304Z,0
2023-05-14T18:50:02.207Z,0
2023-05-14T18:51:08.189Z,0
2023-05-14T18:52:01.953Z,0
2023-05-14T18:53:01.597Z,0
2023-05-14T18:54:01.895Z,0
2023-05-14T18:55:04.014Z,0
2023-05-14T18:56:01.802Z,0
2023-05-14T18:57:02.282Z,0
2023-05-14T18:58:01.710Z,0
2023-05-14T18:59:03.857Z,0
2023-05-14T19:00:06.606Z,0
2023-05-14T19:01:02.117Z,0
2023-05-14T19:02:01.695Z,0
2023-05-14T19:03:02.177Z,0
2023-05-14T19:04:04.493Z,0
2023-05-14T19:05:03.687Z,0
2023-05-14T19:06:01.479Z,0
2023-05-14T19:07:03.606Z,0
2023-05-14T19:08:01.375Z,0
2023-05-14T19:09:01.845Z,0
2023-05-14T19:10:01.765Z,0
2023-05-14T19:11:01.883Z,0
2023-05-14T19:12:02.335Z,0
2023-05-14T19:13:01.769Z,0
2023-05-14T19:14:02.247Z,0
2023-05-14T19:15:01.694Z,0
2023-05-14T19:16:02.272Z,0
2023-05-14T19:17:01.704Z,0
2023-05-14T19:18:02.140Z,0
2023-05-14T19:19:01.639Z,0
2023-05-14T19:20:02.087Z,0
2023-05-14T19:21:03.201Z,0
2023-05-14T19:22:01.809Z,0
2023-05-14T19:23:02.158Z,0
2023-05-14T19:24:01.711Z,0
2023-05-14T19:25:05.099Z,0
2023-05-14T19:26:01.633Z,0
2023-05-14T19:27:02.094Z,0
2023-05-14T19:28:01.599Z,0
2023-05-14T19:29:02.007Z,0
2023-05-14T19:30:01.437Z,0
2023-05-14T19:31:01.938Z,0
2023-05-14T19:32:01.539Z,0
2023-05-14T19:33:01.912Z,0
2023-05-14T19:34:01.377Z,0
2023-05-14T19:35:01.848Z,0
2023-05-14T19:36:02.324Z,0
2023-05-14T19:37:01.785Z,0
2023-05-14T19:38:03.966Z,0
2023-05-14T19:39:01.690Z,0
2023-05-14T19:40:02.171Z,0
2023-05-14T19:41:01.881Z,0
2023-05-14T19:42:02.085Z,0
2023-05-14T19:43:01.546Z,0
2023-05-14T19:44:02.028Z,0
2023-05-14T19:45:01.590Z,0
2023-05-14T19:46:01.981Z,0
2023-05-14T19:47:03.150Z,0
2023-05-14T19:48:01.889Z,0
2023-05-14T19:49:01.386Z,0
2023-05-14T19:50:03.451Z,0
2023-05-14T19:51:02.284Z,0
2023-05-14T19:52:01.771Z,0
2023-05-14T19:53:03.930Z,0
2023-05-14T19:54:01.746Z,0
2023-05-14T19:55:02.155Z,0
2023-05-14T19:56:01.609Z,0
2023-05-14T19:57:03.765Z,0
2023-05-14T19:58:01.532Z,0
2023-05-14T19:59:02.025Z,0
2023-05-14T20:00:01.443Z,0
2023-05-14T20:01:02.105Z,0
2023-05-14T20:02:01.508Z,0
2023-05-14T20:03:02.173Z,0
2023-05-14T20:04:03.057Z,0
2023-05-14T20:05:01.850Z,0
2023-05-14T20:06:02.297Z,0
2023-05-14T20:07:01.775Z,0
2023-05-14T20:08:02.248Z,0
2023-05-14T20:09:03.372Z,0
2023-05-14T20:10:03.853Z,0
2023-05-14T20:11:01.624Z,0
2023-05-14T20:12:03.764Z,0
2023-05-14T20:13:03.235Z,0
2023-05-14T20:14:02.015Z,0
2023-05-14T20:15:01.478Z,0
2023-05-14T20:16:01.996Z,0
2023-05-14T20:17:01.390Z,0
2023-05-14T20:18:01.931Z,0
2023-05-14T20:19:01.461Z,0
2023-05-14T20:20:01.792Z,0
2023-05-14T20:21:02.249Z,0
2023-05-14T20:22:01.798Z,0
2023-05-14T20:23:03.867Z,0
2023-05-14T20:24:01.723Z,0
2023-05-14T20:25:03.768Z,0
2023-05-14T20:26:01.682Z,0
2023-05-14T20:27:02.084Z,0
2023-05-14T20:28:01.619Z,0
2023-05-14T20:29:03.789Z,0
2023-05-14T20:30:01.552Z,0
2023-05-14T20:31:02.030Z,0
2023-05-14T20:32:03.138Z,0
2023-05-14T20:33:01.981Z,0
2023-05-14T20:34:03.066Z,0
2023-05-14T20:35:01.878Z,0
2023-05-14T20:36:03.950Z,0
2023-05-14T20:37:01.772Z,0
2023-05-14T20:38:03.965Z,0
2023-05-14T20:39:03.377Z,0
2023-05-14T20:40:02.258Z,0
2023-05-14T20:41:01.627Z,0
2023-05-14T20:42:02.143Z,0
2023-05-14T20:43:03.195Z,0
2023-05-14T20:44:03.689Z,0
2023-05-14T20:45:03.131Z,0
2023-05-14T20:46:03.647Z,0
2023-05-14T20:47:01.355Z,0
2023-05-14T20:48:03.546Z,0
2023-05-14T20:49:02.322Z,0
2023-05-14T20:50:01.772Z,0
2023-05-14T20:51:03.946Z,0
2023-05-14T20:52:01.683Z,0
2023-05-14T20:53:02.187Z,0
2023-05-14T20:54:01.686Z,0
2023-05-14T20:55:02.480Z,0
2023-05-14T20:56:01.631Z,0
2023-05-14T20:57:02.036Z,0
2023-05-14T20:58:01.535Z,0
2023-05-14T20:59:02.011Z,0
2023-05-14T21:00:01.451Z,0
2023-05-14T21:01:03.599Z,0
2023-05-14T21:02:01.463Z,0
2023-05-14T21:03:02.019Z,0
2023-05-14T21:04:01.523Z,0
2023-05-14T21:05:01.986Z,0
2023-05-14T21:06:04.000Z,0
2023-05-14T21:07:03.478Z,0
2023-05-14T21:08:03.925Z,0
2023-05-14T21:09:01.785Z,0
2023-05-14T21:10:02.249Z,0
2023-05-14T21:11:01.692Z,0
2023-05-14T21:12:02.162Z,0
2023-05-14T21:13:01.722Z,0
2023-05-14T21:14:02.158Z,0
2023-05-14T21:15:01.617Z,0
2023-05-14T21:16:02.114Z,0
2023-05-14T21:17:01.532Z,0
2023-05-14T21:18:02.177Z,0
2023-05-14T21:19:01.562Z,0
2023-05-14T21:20:02.012Z,0
2023-05-14T21:21:01.444Z,0
2023-05-14T21:22:01.921Z,0
2023-05-14T21:23:01.475Z,0
2023-05-14T21:24:03.626Z,0
2023-05-14T21:25:01.368Z,0
2023-05-14T21:26:03.527Z,0
2023-05-14T21:27:01.375Z,0
2023-05-14T21:28:01.877Z,0
2023-05-14T21:29:03.433Z,0
2023-05-14T21:30:02.182Z,0
2023-05-14T21:31:01.692Z,0
2023-05-14T21:32:02.201Z,0
2023-05-14T21:33:01.651Z,0
2023-05-14T21:34:02.131Z,0
2023-05-14T21:35:03.196Z,0
2023-05-14T21:36:03.691Z,0
2023-05-14T21:37:03.112Z,0
2023-05-14T21:38:01.919Z,0
2023-05-14T21:39:01.486Z,0
2023-05-14T21:40:03.521Z,0
2023-05-14T21:41:03.995Z,0
2023-05-14T21:43:04.085Z,0
2023-05-14T21:44:03.438Z,0
2023-05-14T21:45:03.916Z,0
2023-05-14T21:46:01.779Z,0
2023-05-14T21:47:03.863Z,0
2023-05-14T21:48:03.415Z,0
2023-05-14T21:49:02.260Z,0
2023-05-14T21:50:01.706Z,0
2023-05-14T21:51:03.784Z,0
2023-05-14T21:52:03.218Z,0
2023-05-14T21:53:02.040Z,0
2023-05-14T21:54:01.436Z,0
2023-05-14T21:55:02.206Z,0
2023-05-14T21:56:01.361Z,0
2023-05-14T21:57:03.512Z,0
2023-05-14T21:59:03.465Z,0
2023-05-14T22:00:02.285Z,0
2023-05-14T22:01:01.970Z,0
2023-05-14T22:02:06.769Z,0
2023-05-14T22:03:01.713Z,0
2023-05-14T22:04:02.120Z,0
2023-05-14T22:05:01.537Z,0
2023-05-14T22:06:02.018Z,0
2023-05-14T22:07:01.533Z,0
2023-05-14T22:08:01.922Z,0
2023-05-14T22:09:01.434Z,0
2023-05-14T22:10:01.943Z,0
2023-05-14T22:11:01.354Z,0
2023-05-14T22:12:01.858Z,0
2023-05-14T22:13:02.321Z,0
2023-05-14T22:14:03.467Z,0
2023-05-14T22:15:03.946Z,0
2023-05-14T22:16:12.231Z,0
2023-05-14T22:17:03.835Z,0
2023-05-14T22:18:01.704Z,0
2023-05-14T22:19:04.905Z,0
2023-05-14T22:20:01.556Z,0
2023-05-14T22:21:03.688Z,0
2023-05-14T22:22:01.433Z,0
2023-05-14T22:23:03.585Z,0
2023-05-14T22:24:01.362Z,0
2023-05-14T22:25:03.526Z,0
2023-05-14T22:26:01.375Z,0
2023-05-14T22:27:01.843Z,0
2023-05-14T22:28:03.914Z,0
2023-05-14T22:29:01.763Z,0
2023-05-14T22:30:02.241Z,0
2023-05-14T22:31:01.721Z,0
2023-05-14T22:32:02.154Z,0
2023-05-14T22:33:01.686Z,0
2023-05-14T22:34:02.086Z,0
2023-05-14T22:35:01.746Z,0
2023-05-14T22:36:03.970Z,0
2023-05-14T22:37:03.339Z,0
2023-05-14T22:38:02.084Z,0
2023-05-14T22:39:01.515Z,0
2023-05-14T22:40:02.006Z,0
2023-05-14T22:41:01.456Z,0
2023-05-14T22:42:01.934Z,0
2023-05-14T22:43:01.358Z,0
2023-05-14T22:44:01.830Z,0
2023-05-14T22:46:03.546Z,0
2023-05-14T22:47:03.899Z,0
2023-05-14T22:48:01.712Z,0
2023-05-14T22:49:02.160Z,0
2023-05-14T22:50:01.679Z,0
2023-05-14T22:51:02.073Z,0
2023-05-14T22:52:01.616Z,0
2023-05-14T22:53:02.084Z,0
2023-05-14T22:54:01.519Z,0
2023-05-14T22:55:02.016Z,0
2023-05-14T22:56:01.442Z,0
2023-05-14T22:57:01.942Z,0
2023-05-14T22:58:03.047Z,0
2023-05-14T22:59:01.839Z,0
2023-05-14T23:00:01.422Z,0
2023-05-14T23:01:01.846Z,0
2023-05-14T23:02:04.166Z,0
2023-05-14T23:03:03.548Z,0
2023-05-14T23:04:02.325Z,0
2023-05-14T23:05:01.676Z,0
2023-05-14T23:06:02.252Z,0
2023-05-14T23:07:01.679Z,0
2023-05-14T23:08:03.877Z,0
2023-05-14T23:09:01.593Z,0
2023-05-14T23:10:02.207Z,0
2023-05-14T23:11:01.689Z,0
2023-05-14T23:12:02.158Z,0
2023-05-14T23:13:01.697Z,0
2023-05-14T23:14:02.181Z,0
2023-05-14T23:15:01.682Z,0
2023-05-14T23:16:02.160Z,0
2023-05-14T23:17:01.681Z,0
2023-05-14T23:18:02.328Z,0
2023-05-14T23:19:03.801Z,0.05
2023-05-14T23:20:02.233Z,0.91
2023-05-14T23:21:03.450Z,0
2023-05-14T23:22:02.255Z,0
2023-05-14T23:23:03.358Z,0
2023-05-14T23:24:02.241Z,0
2023-05-14T23:25:01.685Z,0
2023-05-14T23:26:02.169Z,0
2023-05-14T23:27:03.365Z,0
2023-05-14T23:28:02.159Z,0
2023-05-14T23:29:03.276Z,0
2023-05-14T23:30:02.244Z,0
2023-05-14T23:31:01.665Z,0
2023-05-14T23:32:02.323Z,0
2023-05-14T23:33:01.746Z,0
2023-05-14T23:34:03.038Z,0
2023-05-14T23:35:01.835Z,0
2023-05-14T23:36:03.925Z,0
2023-05-14T23:37:03.473Z,0
2023-05-14T23:38:02.260Z,0
2023-05-14T23:39:01.778Z,0
2023-05-14T23:40:03.917Z,0
2023-05-14T23:41:01.766Z,0
2023-05-14T23:42:02.240Z,0
2023-05-14T23:43:01.720Z,0
2023-05-14T23:44:02.158Z,0
2023-05-14T23:45:01.628Z,0
2023-05-14T23:46:02.141Z,0
2023-05-14T23:47:01.576Z,0
2023-05-14T23:48:02.090Z,0
2023-05-14T23:49:03.210Z,0
2023-05-14T23:50:02.029Z,0
2023-05-14T23:51:03.125Z,0
2023-05-14T23:52:01.931Z,0
2023-05-14T23:53:01.367Z,0
2023-05-14T23:54:01.909Z,0
2023-05-14T23:55:03.055Z,0
2023-05-14T23:56:01.852Z,0
2023-05-14T23:57:02.324Z,0
2023-05-14T23:58:01.766Z,0
2023-05-14T23:59:02.252Z,0
